Flight Track Log - Related Links

Times and Time Zones

All times are in EDT time to prevent confusion due to time zone crossing. See the DAL3796 flight status page for this flight to view local times or setup timezone preferences in your user account.

Time Position Orientation Groundspeed Altitude Reporting Facility
EDT Latitude Longitude Course Direction KTS MPH feet Rate Location/Type
Thu 03:47:05 PM 42.8733 -85.5761 60° Northeast 179 206 2,500  Level Chicago Center
Thu 03:48:07 PM 42.9069 -85.6289 311° West 247 284 4,700 2,226 Climbing Chicago Center
Thu 03:49:00 PM 42.8333 -85.3392 90° East  Level FlightAware Approximate
Thu 03:49:09 PM 42.9447 -85.5500 57° Northeast 266 306 7,100  Level Chicago Center
Thu 03:50:00 PM 42.8631 -85.2561 62° Northeast  Level FlightAware Approximate
Thu 03:50:11 PM 42.9714 -85.4222 74° East 290 334 10,200  Level Chicago Center
Thu 03:51:00 PM 42.8949 -85.1735 62° Northeast  Level FlightAware Approximate
Thu 03:51:13 PM 42.9958 -85.3014 75° East 324 373 11,000  Level Chicago Center
Thu 03:52:00 PM 42.9340 -85.0763 60° Northeast  Level FlightAware Approximate
Thu 03:52:15 PM 43.0211 -85.1706 75° East 359 413 11,000  Level Chicago Center
Thu 03:53:18 PM 43.0442 -85.0522 75° East 327 376 11,000  Level Chicago Center
Thu 03:54:20 PM 43.0675 -84.9322 75° East 328 377 11,000  Level Chicago Center
Thu 03:55:22 PM 43.0761 -84.7878 85° East 324 373 11,000  Level Chicago Center
Thu 03:56:24 PM 43.0547 -84.6772 105° East 301 346 11,000  Level Chicago Center
Thu 03:57:26 PM 43.0289 -84.5681 108° East 302 348 11,000  Level Chicago Center
Thu 03:58:28 PM 43.0044 -84.4572 107° East 305 351 11,000  Level Chicago Center
Thu 03:59:22 PM 42.9781 -84.3492 108° East 304 350 11,000  Level Cleveland Center
Thu 04:00:12 PM 42.9581 -84.2600 107° East 301 346 11,000  Level Cleveland Center
Thu 04:01:22 PM 42.9231 -84.1161 108° East 311 358 11,000  Level Cleveland Center
Thu 04:02:22 PM 42.8933 -83.9897 108° East 330 380 11,000  Level Cleveland Center
Thu 04:03:22 PM 42.8639 -83.8578 107° East 352 405 11,000  Level Cleveland Center
Thu 04:04:22 PM 42.8297 -83.7400 112° Southeast 345 397 11,000 -400 Level Cleveland Center
Thu 04:05:22 PM 42.7581 -83.6883 152° Southeast 293 337 10,200 -1,000 Descending Cleveland Center
Thu 04:06:22 PM 42.6950 -83.6286 145° Southeast 278 320 9,000 -966 Descending Cleveland Center
Thu 04:07:20 PM 42.6367 -83.5525 136° Southeast 286 329 8,300 -950 Descending Cleveland Center
Thu 04:08:22 PM 42.5822 -83.4764 134° Southeast 290 334 7,100 -1,078 Descending Cleveland Center
Thu 04:09:28 PM 42.5197 -83.3947 136° Southeast 278 320 6,000 -1,031 Descending Cleveland Center
Thu 04:10:30 PM 42.4544 -83.3300 144° Southeast 276 318 4,900 -1,122 Descending Cleveland Center
Thu 04:11:31 PM 42.3867 -83.2931 158° South 254 292 3,700 -1,180 Descending Cleveland Center

Login

Don't have an account? Register now (free) for customized features, flight alerts, and more!